Time;durP1;ratioP1;P1;durP2;ratioP2;P2;SDS_P1;SDS_P2;PMS_P1;PMS_P2;Temp;Humidity;BMP_temperature;BMP_pressure;BME280_temperature;BME280_humidity;BME280_pressure;Samples;Min_cycle;Max_cycle;Signal;HPM_P1;HPM_P2
2022/03/03 00:00:19;;;;;;;31.73;17.65;;;-1.00;99.90;;;;;;5071911;28;20067;-71
2022/03/03 00:02:45;;;;;;;31.92;17.90;;;-1.00;99.90;;;;;;5062214;28;20047;-70
2022/03/03 00:05:12;;;;;;;32.42;17.90;;;-1.00;99.90;;;;;;5052601;28;20047;-70
2022/03/03 00:07:37;;;;;;;28.27;17.13;;;-1.10;99.90;;;;;;5051939;28;20028;-72
2022/03/03 00:10:04;;;;;;;33.13;17.80;;;-1.10;99.90;;;;;;5069470;28;20090;-71
2022/03/03 00:12:30;;;;;;;29.85;17.08;;;-1.20;99.90;;;;;;5065591;28;20059;-71
2022/03/03 00:14:55;;;;;;;36.28;18.45;;;-1.30;99.90;;;;;;5071706;28;20029;-71
2022/03/03 00:17:21;;;;;;;29.58;18.15;;;-1.20;99.90;;;;;;5072473;28;20032;-71
2022/03/03 00:19:47;;;;;;;34.72;19.23;;;-1.30;99.90;;;;;;5071049;28;20393;-71
2022/03/03 00:22:13;;;;;;;31.02;17.45;;;-1.30;99.90;;;;;;5067789;28;20466;-71
2022/03/03 00:24:38;;;;;;;33.00;18.83;;;-1.40;99.90;;;;;;5051445;28;20033;-71
2022/03/03 00:27:05;;;;;;;29.55;17.77;;;-1.40;99.90;;;;;;5056944;28;20027;-71
2022/03/03 00:29:31;;;;;;;30.67;18.17;;;-1.40;99.90;;;;;;5059273;28;20040;-71
2022/03/03 00:31:57;;;;;;;29.25;17.35;;;-1.40;99.90;;;;;;5051341;28;20020;-71
2022/03/03 00:34:22;;;;;;;27.75;17.02;;;-1.40;99.90;;;;;;5068143;28;20062;-71
2022/03/03 00:36:48;;;;;;;30.67;17.17;;;-1.40;99.90;;;;;;5071411;28;20020;-71
2022/03/03 00:39:14;;;;;;;34.38;18.63;;;-1.50;99.90;;;;;;5071381;28;20108;-71
2022/03/03 00:41:39;;;;;;;37.83;19.30;;;-1.50;99.90;;;;;;5071267;28;20154;-71
2022/03/03 00:44:06;;;;;;;29.63;17.77;;;-1.50;99.90;;;;;;5054479;28;20028;-68
2022/03/03 00:46:33;;;;;;;31.30;17.92;;;-1.50;99.90;;;;;;5051176;28;20024;-71
2022/03/03 00:48:59;;;;;;;32.22;18.60;;;-1.50;99.90;;;;;;5056641;28;20032;-71
2022/03/03 00:51:24;;;;;;;28.98;17.95;;;-1.60;99.90;;;;;;5071376;28;20129;-71
2022/03/03 00:53:51;;;;;;;32.15;17.50;;;-1.60;99.90;;;;;;5054519;28;20028;-71
2022/03/03 00:56:18;;;;;;;35.70;18.83;;;-1.60;99.90;;;;;;5051882;28;20040;-71
2022/03/03 00:58:44;;;;;;;33.58;18.08;;;-1.60;99.90;;;;;;5053386;28;20051;-71
2022/03/03 01:01:10;;;;;;;31.65;18.35;;;-1.70;99.90;;;;;;5068014;28;20044;-71
2022/03/03 01:03:35;;;;;;;33.03;18.67;;;-1.70;99.90;;;;;;5051912;28;20029;-72
2022/03/03 01:06:01;;;;;;;33.38;17.48;;;-1.70;99.90;;;;;;5051376;28;20071;-71
2022/03/03 01:08:27;;;;;;;34.55;19.88;;;-1.80;99.90;;;;;;5065919;28;20033;-69
2022/03/03 01:10:52;;;;;;;35.63;19.40;;;-1.80;99.90;;;;;;5068813;28;20035;-71
2022/03/03 01:13:20;;;;;;;36.60;20.52;;;-1.90;99.90;;;;;;5056673;28;20386;-69
2022/03/03 01:15:46;;;;;;;33.60;18.05;;;-1.80;99.90;;;;;;5050789;28;20186;-69
2022/03/03 01:18:11;;;;;;;32.95;18.88;;;-1.80;99.90;;;;;;5063688;28;20104;-69
2022/03/03 01:20:37;;;;;;;34.17;19.58;;;-1.80;99.90;;;;;;5070262;28;20039;-70
2022/03/03 01:23:03;;;;;;;30.70;17.35;;;-1.90;99.90;;;;;;5059198;28;20028;-68
2022/03/03 01:25:29;;;;;;;31.30;18.25;;;-1.90;99.90;;;;;;5054019;28;20111;-69
2022/03/03 01:27:54;;;;;;;36.00;18.80;;;-2.00;99.90;;;;;;5071172;28;20032;-69
2022/03/03 01:30:20;;;;;;;36.72;20.95;;;-2.00;99.90;;;;;;5071526;28;20033;-69
2022/03/03 01:32:45;;;;;;;38.80;20.17;;;-2.00;99.90;;;;;;5049345;28;20040;-69
2022/03/03 01:35:11;;;;;;;50.13;19.65;;;-1.90;99.90;;;;;;5051980;28;20496;-69
2022/03/03 01:37:37;;;;;;;32.17;18.85;;;-1.80;99.90;;;;;;5070027;28;20108;-70
2022/03/03 01:40:04;;;;;;;34.47;19.38;;;-1.70;99.90;;;;;;5071085;28;20484;-69
2022/03/03 01:42:29;;;;;;;33.03;18.25;;;-1.60;99.90;;;;;;5063724;28;20040;-69
2022/03/03 01:44:55;;;;;;;34.08;19.60;;;-1.60;99.90;;;;;;5052108;28;20033;-69
2022/03/03 01:47:25;;;;;;;33.67;19.40;;;-1.60;99.90;;;;;;5054271;28;20043;-69
2022/03/03 01:49:54;;;;;;;34.47;18.73;;;-1.70;99.90;;;;;;5070674;28;20422;-69
2022/03/03 01:52:21;;;;;;;37.00;18.08;;;-1.70;99.90;;;;;;5066453;28;20025;-69
2022/03/03 01:54:46;;;;;;;40.65;20.23;;;-1.80;99.90;;;;;;5065432;28;20042;-72
2022/03/03 01:57:15;;;;;;;36.97;19.38;;;-1.80;99.90;;;;;;5057904;28;20029;-69
2022/03/03 01:59:40;;;;;;;34.22;18.73;;;-1.90;99.90;;;;;;5054236;28;20061;-69
2022/03/03 02:02:09;;;;;;;33.78;18.67;;;-1.90;99.90;;;;;;5054488;28;20485;-69
2022/03/03 02:04:34;;;;;;;32.65;19.10;;;-2.00;99.90;;;;;;5055945;28;20123;-70
2022/03/03 02:07:00;;;;;;;39.00;21.85;;;-2.00;99.90;;;;;;5062592;28;20108;-69
2022/03/03 02:09:26;;;;;;;34.20;19.60;;;-2.00;99.90;;;;;;5054873;28;20456;-69
2022/03/03 02:11:52;;;;;;;35.40;20.08;;;-2.00;99.90;;;;;;5064968;28;20036;-69
2022/03/03 02:14:18;;;;;;;31.13;18.42;;;-2.00;99.90;;;;;;5055336;28;20029;-69
2022/03/03 02:16:44;;;;;;;35.15;18.55;;;-2.00;99.90;;;;;;5071469;28;20033;-70
2022/03/03 02:19:15;;;;;;;44.25;20.85;;;-2.00;99.90;;;;;;5074375;28;20036;-69
2022/03/03 02:21:41;;;;;;;34.25;19.48;;;-2.00;99.90;;;;;;5074020;28;20069;-71
2022/03/03 02:24:07;;;;;;;37.17;19.55;;;-2.10;99.90;;;;;;5055962;28;20111;-69
2022/03/03 02:26:34;;;;;;;37.50;21.98;;;-2.10;99.90;;;;;;5060125;28;20021;-69
2022/03/03 02:28:59;;;;;;;34.47;19.95;;;-2.10;99.90;;;;;;5053417;28;20039;-69
2022/03/03 02:31:25;;;;;;;37.75;20.80;;;-2.20;99.90;;;;;;5055897;28;20090;-69
2022/03/03 02:33:51;;;;;;;31.98;19.58;;;-2.20;99.90;;;;;;5058341;28;20025;-69
2022/03/03 02:36:22;;;;;;;39.72;20.15;;;-2.20;99.90;;;;;;5054512;28;20021;-69
2022/03/03 02:38:50;;;;;;;33.92;18.98;;;-2.30;99.90;;;;;;5053459;28;20052;-70
2022/03/03 02:41:16;;;;;;;38.63;19.73;;;-2.40;99.90;;;;;;5054687;28;20104;-70
2022/03/03 02:43:42;;;;;;;39.72;20.17;;;-2.50;99.90;;;;;;5059255;28;20385;-71
2022/03/03 02:46:09;;;;;;;41.10;21.05;;;-2.50;99.90;;;;;;5054160;28;20087;-70
2022/03/03 02:48:35;;;;;;;38.78;20.95;;;-2.50;99.90;;;;;;5066528;28;20064;-70
2022/03/03 02:51:01;;;;;;;39.92;21.40;;;-2.60;99.90;;;;;;5067542;28;20591;-70
2022/03/03 02:53:26;;;;;;;40.00;21.95;;;-2.60;99.90;;;;;;5054824;28;20033;-70
2022/03/03 02:55:52;;;;;;;46.72;24.92;;;-2.60;99.90;;;;;;5055773;28;20032;-70
2022/03/03 02:58:18;;;;;;;47.58;24.35;;;-2.60;99.90;;;;;;5073565;28;20087;-70
2022/03/03 03:00:44;;;;;;;41.70;22.27;;;-2.50;99.90;;;;;;5068302;28;20049;-70
2022/03/03 03:03:11;;;;;;;42.38;22.15;;;-2.40;99.90;;;;;;5053851;28;20025;-69
2022/03/03 03:05:36;;;;;;;43.88;22.17;;;-2.30;99.90;;;;;;5053850;28;20116;-69
2022/03/03 03:08:03;;;;;;;36.13;20.55;;;-2.30;99.90;;;;;;5052551;28;20064;-69
2022/03/03 03:10:28;;;;;;;35.17;19.75;;;-2.30;99.90;;;;;;5054276;28;20025;-70
2022/03/03 03:12:54;;;;;;;34.22;19.00;;;-2.30;99.90;;;;;;5064051;28;20035;-70
2022/03/03 03:15:20;;;;;;;35.45;19.73;;;-2.40;99.90;;;;;;5073752;28;20029;-69
2022/03/03 03:17:46;;;;;;;37.22;20.98;;;-2.50;99.90;;;;;;5072648;28;20029;-70
2022/03/03 03:20:12;;;;;;;36.38;19.60;;;-2.60;99.90;;;;;;5070114;28;20033;-69
2022/03/03 03:22:38;;;;;;;38.70;21.08;;;-2.70;99.90;;;;;;5053283;28;20036;-69
2022/03/03 03:25:05;;;;;;;42.45;21.55;;;-2.80;99.90;;;;;;5051732;28;20029;-69
2022/03/03 03:27:31;;;;;;;37.88;21.02;;;-2.80;99.90;;;;;;5072970;28;20394;-69
2022/03/03 03:29:57;;;;;;;38.35;21.73;;;-2.80;99.90;;;;;;5071778;28;20039;-69
2022/03/03 03:32:22;;;;;;;37.00;20.40;;;-2.90;99.90;;;;;;5053067;28;20057;-69
2022/03/03 03:34:48;;;;;;;39.85;21.05;;;-2.90;99.90;;;;;;5057878;28;20024;-69
2022/03/03 03:37:13;;;;;;;41.95;21.58;;;-2.90;99.90;;;;;;5073134;28;20024;-69
2022/03/03 03:39:39;;;;;;;36.75;21.13;;;-2.90;99.90;;;;;;5063917;28;20090;-69
2022/03/03 03:42:05;;;;;;;36.55;20.60;;;-2.90;99.90;;;;;;5059676;28;20466;-69
2022/03/03 03:44:30;;;;;;;42.55;22.45;;;-2.90;99.90;;;;;;5073109;28;20032;-69
2022/03/03 03:46:56;;;;;;;41.17;22.38;;;-3.00;99.90;;;;;;5071355;28;20032;-69
2022/03/03 03:49:23;;;;;;;42.35;21.85;;;-2.90;99.90;;;;;;5072301;28;20032;-69
2022/03/03 03:51:49;;;;;;;37.42;20.77;;;-3.00;99.90;;;;;;5056317;28;20029;-69
2022/03/03 03:54:15;;;;;;;40.47;21.95;;;-3.00;99.90;;;;;;5052861;28;20029;-69
2022/03/03 03:56:41;;;;;;;36.58;21.40;;;-2.90;99.90;;;;;;5052711;28;20028;-70
2022/03/03 03:59:06;;;;;;;38.42;21.20;;;-2.90;99.90;;;;;;5052330;28;20402;-69
2022/03/03 04:01:32;;;;;;;44.72;22.42;;;-2.90;99.90;;;;;;5070658;28;20044;-70
2022/03/03 04:03:58;;;;;;;37.03;21.77;;;-2.80;99.90;;;;;;5071744;28;20036;-70
2022/03/03 04:06:23;;;;;;;44.13;21.15;;;-2.80;99.90;;;;;;5072677;28;20020;-69
2022/03/03 04:08:49;;;;;;;39.22;21.33;;;-2.80;99.90;;;;;;5071026;28;20055;-70
2022/03/03 04:11:15;;;;;;;52.70;24.27;;;-2.80;99.90;;;;;;5061758;28;20052;-70
2022/03/03 04:13:40;;;;;;;43.33;22.80;;;-2.80;99.90;;;;;;5052630;28;20101;-70
2022/03/03 04:16:06;;;;;;;39.72;22.17;;;-2.80;99.90;;;;;;5052331;28;20079;-69
2022/03/03 04:18:32;;;;;;;37.92;20.73;;;-2.80;99.90;;;;;;5052532;28;20508;-69
2022/03/03 04:20:57;;;;;;;39.83;19.92;;;-2.80;99.90;;;;;;5064819;28;20062;-69
2022/03/03 04:23:23;;;;;;;39.50;21.80;;;-2.80;99.90;;;;;;5072384;28;20099;-70
2022/03/03 04:25:49;;;;;;;41.50;21.30;;;-2.80;99.90;;;;;;5070579;28;20115;-69
2022/03/03 04:28:14;;;;;;;38.67;21.42;;;-2.90;99.90;;;;;;5072208;28;20518;-70
2022/03/03 04:30:40;;;;;;;41.97;21.75;;;-2.90;99.90;;;;;;5066029;28;20441;-69
2022/03/03 04:33:06;;;;;;;40.75;22.20;;;-2.90;99.90;;;;;;5051282;28;20108;-69
2022/03/03 04:35:31;;;;;;;41.90;23.30;;;-2.90;99.90;;;;;;5052081;28;20078;-69
2022/03/03 04:37:57;;;;;;;48.72;23.98;;;-2.80;99.90;;;;;;5051410;28;20029;-68
2022/03/03 04:40:23;;;;;;;41.50;22.52;;;-2.70;99.90;;;;;;5065186;28;20025;-68
2022/03/03 04:42:51;;;;;;;40.28;22.02;;;-2.60;99.90;;;;;;5051048;28;20119;-69
2022/03/03 04:45:18;;;;;;;37.90;21.98;;;-2.60;99.90;;;;;;5052668;28;20021;-68
2022/03/03 04:47:44;;;;;;;38.78;20.92;;;-2.60;99.90;;;;;;5050526;28;20378;-70
2022/03/03 04:50:09;;;;;;;39.40;22.38;;;-2.60;99.90;;;;;;5064463;28;20064;-69
2022/03/03 04:52:36;;;;;;;41.67;21.10;;;-2.70;99.90;;;;;;5053802;28;20114;-69
2022/03/03 04:55:04;;;;;;;40.17;21.73;;;-2.70;99.90;;;;;;5051752;28;20098;-69
2022/03/03 04:57:31;;;;;;;43.20;21.60;;;-2.80;99.90;;;;;;5070476;28;20034;-70
2022/03/03 04:59:56;;;;;;;40.92;20.42;;;-2.90;99.90;;;;;;5069895;28;20098;-69
2022/03/03 05:02:22;;;;;;;37.42;21.17;;;-3.00;99.90;;;;;;5056348;28;20033;-69
2022/03/03 05:04:48;;;;;;;41.90;22.02;;;-3.00;99.90;;;;;;5049530;28;20454;-69
2022/03/03 05:07:13;;;;;;;42.40;21.10;;;-3.10;99.90;;;;;;5070768;28;20484;-68
2022/03/03 05:09:39;;;;;;;42.20;22.63;;;-3.20;99.90;;;;;;5069237;28;20036;-70
2022/03/03 05:12:05;;;;;;;48.00;24.67;;;-3.10;99.90;;;;;;5070448;28;20291;-69
2022/03/03 05:14:31;;;;;;;44.90;23.90;;;-3.10;99.90;;;;;;5054888;28;20059;-69
2022/03/03 05:16:57;;;;;;;47.28;22.95;;;-3.00;99.90;;;;;;5066578;28;20028;-69
2022/03/03 05:19:22;;;;;;;45.00;23.48;;;-3.00;99.90;;;;;;5066318;28;20048;-69
2022/03/03 05:21:49;;;;;;;44.55;22.92;;;-3.00;99.90;;;;;;5070226;28;20032;-69
2022/03/03 05:24:14;;;;;;;42.55;21.48;;;-3.00;99.90;;;;;;5063090;28;20032;-69
2022/03/03 05:26:40;;;;;;;44.88;23.70;;;-3.00;99.90;;;;;;5051682;28;20025;-69
2022/03/03 05:29:06;;;;;;;42.42;23.42;;;-3.10;99.90;;;;;;5051139;28;20017;-69
2022/03/03 05:31:31;;;;;;;47.35;24.05;;;-3.10;99.90;;;;;;5061986;28;20051;-70
2022/03/03 05:33:57;;;;;;;42.22;22.70;;;-3.00;99.90;;;;;;5057171;28;20025;-70
2022/03/03 05:36:24;;;;;;;48.47;23.08;;;-3.10;99.90;;;;;;5055519;28;20025;-69
2022/03/03 05:38:52;;;;;;;40.78;23.13;;;-3.10;99.90;;;;;;5054821;28;20024;-70
2022/03/03 05:41:17;;;;;;;40.65;22.67;;;-3.10;99.90;;;;;;5055551;28;20029;-69
2022/03/03 05:43:43;;;;;;;45.03;22.77;;;-3.10;99.90;;;;;;5060043;28;20462;-69
2022/03/03 05:46:09;;;;;;;43.70;23.00;;;-3.20;99.90;;;;;;5074940;28;20489;-69
2022/03/03 05:48:35;;;;;;;44.97;23.25;;;-3.20;99.90;;;;;;5072988;28;20028;-69
2022/03/03 05:51:01;;;;;;;42.03;21.55;;;-3.30;99.90;;;;;;5071971;28;20033;-70
2022/03/03 05:53:26;;;;;;;45.78;23.08;;;-3.30;99.90;;;;;;5074597;28;20064;-70
2022/03/03 05:55:55;;;;;;;42.38;22.60;;;-3.40;99.90;;;;;;5067238;28;20049;-70
2022/03/03 05:58:23;;;;;;;45.55;23.67;;;-3.50;99.90;;;;;;5062281;28;20083;-70
2022/03/03 06:00:54;;;;;;;45.47;23.52;;;-3.50;99.90;;;;;;5072384;28;20048;-70
2022/03/03 06:03:20;;;;;;;43.47;23.02;;;-3.50;99.90;;;;;;5073785;28;20051;-70
2022/03/03 06:05:50;;;;;;;46.13;25.58;;;-3.50;99.90;;;;;;5066789;28;20029;-71
2022/03/03 06:08:20;;;;;;;47.22;24.13;;;-3.50;99.90;;;;;;5054167;28;20500;-70
2022/03/03 06:10:50;;;;;;;44.30;23.58;;;-3.50;99.90;;;;;;5069061;28;20068;-70
2022/03/03 06:13:30;;;;;;;51.65;24.55;;;-3.50;99.90;;;;;;5073751;28;20052;-70
2022/03/03 06:15:56;;;;;;;48.55;25.05;;;-3.50;99.90;;;;;;5053307;28;20025;-69
2022/03/03 06:18:27;;;;;;;53.33;25.02;;;-3.50;99.90;;;;;;5054110;28;20029;-70
2022/03/03 06:20:54;;;;;;;47.65;24.65;;;-3.40;99.90;;;;;;5052500;28;20045;-78
2022/03/03 06:23:20;;;;;;;44.85;23.98;;;-3.40;99.90;;;;;;5054342;28;20036;-71
2022/03/03 06:26:03;;;;;;;42.75;22.10;;;-3.40;99.90;;;;;;5053143;28;20033;-71
2022/03/03 06:28:29;;;;;;;55.40;25.33;;;-3.40;99.90;;;;;;5055280;28;20025;-70
2022/03/03 06:30:55;;;;;;;43.33;23.88;;;-3.40;99.90;;;;;;5071319;28;20079;-70
2022/03/03 06:33:21;;;;;;;41.90;23.38;;;-3.40;99.90;;;;;;5073070;28;20465;-70
2022/03/03 06:35:47;;;;;;;45.95;24.75;;;-3.40;99.90;;;;;;5050088;28;20029;-72
2022/03/03 06:38:12;;;;;;;47.10;24.52;;;-3.30;99.90;;;;;;5055577;28;20021;-74
2022/03/03 06:40:38;;;;;;;54.38;26.83;;;-3.30;99.90;;;;;;5070106;28;20166;-77
2022/03/03 06:43:04;;;;;;;52.78;25.55;;;-3.30;99.90;;;;;;5072606;28;20025;-77
2022/03/03 06:45:31;;;;;;;49.63;25.10;;;-3.20;99.90;;;;;;5051208;28;20497;-79
2022/03/03 06:48:01;;;;;;;53.63;25.38;;;-3.10;99.90;;;;;;5060414;28;20032;-71
2022/03/03 06:50:28;;;;;;;44.83;23.08;;;-3.00;99.90;;;;;;5055619;28;20054;-71
2022/03/03 06:52:55;;;;;;;46.90;23.45;;;-2.90;99.90;;;;;;5051547;28;20513;-77
2022/03/03 06:55:22;;;;;;;44.00;23.50;;;-2.80;99.90;;;;;;5062063;28;20074;-75
2022/03/03 06:57:56;;;;;;;48.03;24.30;;;-2.60;99.90;;;;;;5053959;28;20037;-72
2022/03/03 07:00:26;;;;;;;42.47;22.02;;;-2.50;99.90;;;;;;5071544;28;20071;-76
2022/03/03 07:02:52;;;;;;;50.83;23.88;;;-2.30;99.90;;;;;;5064625;28;20045;-72
2022/03/03 07:05:19;;;;;;;44.25;21.85;;;-2.20;99.90;;;;;;5061143;28;20033;-80
2022/03/03 07:07:47;;;;;;;40.92;21.35;;;-2.10;99.90;;;;;;5058718;28;20144;-74
2022/03/03 07:10:14;;;;;;;41.10;21.65;;;-2.00;99.90;;;;;;5062297;28;20035;-73
2022/03/03 07:12:40;;;;;;;42.60;22.85;;;-1.80;99.90;;;;;;5052696;28;20037;-73
2022/03/03 07:15:08;;;;;;;41.03;21.45;;;-1.60;99.90;;;;;;5053046;28;20502;-73
2022/03/03 07:17:50;;;;;;;41.25;22.52;;;-1.30;99.90;;;;;;5062466;28;20055;-73
2022/03/03 07:20:36;;;;;;;41.15;22.25;;;-1.00;99.90;;;;;;5066585;28;20481;-74
2022/03/03 07:23:32;;;;;;;44.38;21.08;;;-0.80;99.90;;;;;;5046524;28;20099;-73
2022/03/03 07:26:01;;;;;;;40.65;21.25;;;-0.70;99.90;;;;;;5051928;28;20107;-74
2022/03/03 07:28:28;;;;;;;38.90;21.67;;;-0.60;99.90;;;;;;5063704;28;20062;-75
2022/03/03 07:30:55;;;;;;;32.50;19.42;;;-0.60;99.90;;;;;;5062272;28;20037;-72
2022/03/03 07:33:38;;;;;;;44.00;21.02;;;-0.60;99.90;;;;;;5067053;28;20025;-74
2022/03/03 07:36:08;;;;;;;40.38;21.70;;;-0.60;99.90;;;;;;5069434;28;20028;-73
2022/03/03 07:38:38;;;;;;;45.55;20.67;;;-0.50;99.90;;;;;;5066500;28;20071;-74
2022/03/03 07:41:04;;;;;;;;;;;-0.50;99.90;;;;;;5053406;28;20037;-73
2022/03/03 07:43:30;;;;;;;42.15;20.95;;;-0.40;99.90;;;;;;5052617;28;19953;-73
2022/03/03 07:45:56;;;;;;;37.92;19.67;;;-0.30;99.90;;;;;;5055818;28;20498;-72
2022/03/03 07:48:23;;;;;;;37.05;20.52;;;-0.20;99.90;;;;;;5062164;28;20025;-74
2022/03/03 07:50:49;;;;;;;42.20;20.55;;;-0.10;99.90;;;;;;5054040;28;20128;-74
2022/03/03 07:53:15;;;;;;;43.60;21.70;;;0.00;99.90;;;;;;5050883;28;20597;-73
2022/03/03 07:55:45;;;;;;;37.78;21.25;;;0.00;99.90;;;;;;5056593;28;20039;-71
2022/03/03 07:58:16;;;;;;;36.35;20.70;;;0.10;99.90;;;;;;5062815;28;20056;-72
2022/03/03 08:00:47;;;;;;;39.35;21.27;;;0.20;99.90;;;;;;5055412;28;20033;-71
2022/03/03 08:03:16;;;;;;;36.60;20.05;;;0.20;99.90;;;;;;5053515;28;20484;-72
2022/03/03 08:05:45;;;;;;;41.92;21.85;;;0.40;99.90;;;;;;5066816;28;20479;-71
2022/03/03 08:08:14;;;;;;;39.50;21.02;;;0.50;99.90;;;;;;5068883;28;20158;-72
2022/03/03 08:10:42;;;;;;;47.33;21.55;;;0.80;99.90;;;;;;5051915;28;20468;-70
2022/03/03 08:13:12;;;;;;;41.42;21.25;;;1.00;99.90;;;;;;5066881;28;20078;-70
2022/03/03 08:15:39;;;;;;;37.97;21.05;;;1.10;99.90;;;;;;5071187;28;20028;-70
2022/03/03 08:18:06;;;;;;;38.70;20.83;;;1.20;99.90;;;;;;5069443;28;20025;-71
2022/03/03 08:20:33;;;;;;;44.42;23.10;;;1.30;99.90;;;;;;5050739;28;20025;-71
2022/03/03 08:23:00;;;;;;;37.15;21.80;;;1.40;99.90;;;;;;5059734;28;20063;-70
2022/03/03 08:25:27;;;;;;;41.63;22.23;;;1.50;99.90;;;;;;5066766;28;20461;-71
2022/03/03 08:27:54;;;;;;;43.58;22.27;;;1.60;99.90;;;;;;5068620;28;20028;-71
2022/03/03 08:30:21;;;;;;;43.80;23.88;;;1.70;99.90;;;;;;5070636;28;20972;-74
2022/03/03 08:33:01;;;;;;;42.00;22.33;;;1.80;99.90;;;;;;5071994;28;20067;-69
2022/03/03 08:35:31;;;;;;;46.80;21.33;;;2.00;99.90;;;;;;5071003;28;20020;-71
2022/03/03 08:38:16;;;;;;;41.67;21.37;;;2.20;99.90;;;;;;5067628;28;20040;-70
2022/03/03 08:40:44;;;;;;;39.53;21.20;;;2.30;99.90;;;;;;5066320;28;20065;-73
2022/03/03 08:43:14;;;;;;;40.10;20.55;;;2.50;99.90;;;;;;5065149;28;20059;-72
2022/03/03 08:45:40;;;;;;;38.57;20.63;;;2.60;99.90;;;;;;5056236;28;20124;-72
2022/03/03 08:48:10;;;;;;;41.47;22.05;;;2.60;99.90;;;;;;5070201;28;20255;-71
2022/03/03 08:50:38;;;;;;;;;;;2.70;99.90;;;;;;5071764;28;20037;-71
2022/03/03 08:53:05;;;;;;;38.40;21.77;;;2.70;99.90;;;;;;5064865;28;19916;-71
2022/03/03 08:55:32;;;;;;;37.97;20.65;;;2.80;99.90;;;;;;5063987;28;20032;-71
2022/03/03 08:57:58;;;;;;;37.13;21.95;;;2.70;99.90;;;;;;5058057;28;20430;-71
2022/03/03 09:00:25;;;;;;;39.88;21.80;;;2.80;99.90;;;;;;5050548;28;20124;-72
2022/03/03 09:02:52;;;;;;;41.72;21.48;;;2.80;99.90;;;;;;5051005;28;20025;-71
2022/03/03 09:05:18;;;;;;;38.30;21.17;;;3.00;99.90;;;;;;5056255;28;20029;-72
2022/03/03 09:07:45;;;;;;;37.22;21.40;;;3.10;99.90;;;;;;5069480;28;20032;-73
2022/03/03 09:10:11;;;;;;;40.38;21.17;;;3.20;99.90;;;;;;5068550;28;20036;-72
2022/03/03 09:12:37;;;;;;;38.45;21.20;;;3.10;99.90;;;;;;5055369;28;20106;-72
2022/03/03 09:15:04;;;;;;;44.13;23.13;;;3.10;99.90;;;;;;5051196;28;20025;-72
2022/03/03 09:17:30;;;;;;;43.13;23.45;;;3.20;99.90;;;;;;5069205;28;20033;-72
2022/03/03 09:19:56;;;;;;;46.40;23.58;;;3.30;99.90;;;;;;5049011;28;20125;-72
2022/03/03 09:22:21;;;;;;;46.63;23.20;;;3.40;99.90;;;;;;5050170;28;20027;-72
2022/03/03 09:24:47;;;;;;;40.50;23.02;;;3.60;99.90;;;;;;5050468;28;20328;-72
2022/03/03 09:27:12;;;;;;;46.33;23.70;;;3.70;99.40;;;;;;5061361;28;20031;-72
2022/03/03 09:29:38;;;;;;;41.22;21.75;;;3.70;99.10;;;;;;5055721;28;20482;-72
2022/03/03 09:32:05;;;;;;;47.40;23.38;;;3.70;99.00;;;;;;5050305;28;20111;-73
2022/03/03 09:34:31;;;;;;;51.42;23.65;;;3.80;99.10;;;;;;5057116;28;20020;-72
2022/03/03 09:36:57;;;;;;;40.20;22.42;;;3.80;98.80;;;;;;5064468;28;20024;-72
2022/03/03 09:39:24;;;;;;;40.53;22.63;;;4.00;98.20;;;;;;5058565;28;20036;-73
2022/03/03 09:41:51;;;;;;;42.08;22.33;;;4.20;97.20;;;;;;5070300;28;20086;-72
2022/03/03 09:44:24;;;;;;;41.97;22.90;;;4.30;97.10;;;;;;5069496;28;20020;-72
2022/03/03 09:46:50;;;;;;;45.10;24.95;;;4.30;97.50;;;;;;5059008;28;20363;-72
2022/03/03 09:49:17;;;;;;;47.30;22.15;;;4.50;97.60;;;;;;5049845;28;20128;-72
2022/03/03 09:51:43;;;;;;;40.70;21.45;;;4.70;94.50;;;;;;5051611;28;20044;-72
2022/03/03 09:54:09;;;;;;;44.60;22.45;;;4.80;94.00;;;;;;5056475;28;20033;-72
2022/03/03 09:56:36;;;;;;;38.15;22.10;;;4.80;94.30;;;;;;5051480;28;20075;-72
2022/03/03 09:59:02;;;;;;;40.75;22.73;;;4.90;94.90;;;;;;5048832;28;20075;-72
2022/03/03 10:01:29;;;;;;;37.53;21.58;;;5.00;93.70;;;;;;5049000;28;20073;-72
2022/03/03 10:04:12;;;;;;;37.85;21.50;;;5.00;93.50;;;;;;5054372;28;20025;-72
2022/03/03 10:06:42;;;;;;;46.75;21.45;;;5.10;93.90;;;;;;5070729;28;20470;-72
2022/03/03 10:09:09;;;;;;;43.78;22.67;;;5.20;93.10;;;;;;5060127;28;20021;-72
2022/03/03 10:12:00;;;;;;;34.92;22.48;;;5.20;92.80;;;;;;5049244;28;20091;-72
2022/03/03 10:14:27;;;;;;;34.80;20.52;;;5.40;92.50;;;;;;5051297;28;20033;-72
2022/03/03 10:16:53;;;;;;;41.53;21.80;;;5.40;91.50;;;;;;5062525;28;20033;-72
2022/03/03 10:19:18;;;;;;;42.33;21.88;;;5.70;90.20;;;;;;5050240;28;20033;-73
2022/03/03 10:21:44;;;;;;;35.08;21.55;;;5.90;89.40;;;;;;5053393;28;20021;-72
2022/03/03 10:24:22;;;;;;;37.90;21.65;;;6.00;87.70;;;;;;5053352;28;20037;-73
2022/03/03 10:26:57;;;;;;;37.38;19.95;;;6.10;86.90;;;;;;5073256;28;20028;-73
2022/03/03 10:29:23;;;;;;;36.50;20.50;;;6.10;87.10;;;;;;5059058;28;20025;-72
2022/03/03 10:31:51;;;;;;;32.72;19.90;;;6.10;86.70;;;;;;5069556;28;20362;-71
2022/03/03 10:34:19;;;;;;;32.20;19.30;;;6.20;83.60;;;;;;5071836;28;20028;-72
2022/03/03 10:37:01;;;;;;;38.95;20.13;;;6.20;83.40;;;;;;5059851;28;20466;-73
2022/03/03 10:39:41;;;;;;;32.92;20.20;;;6.40;83.40;;;;;;5051097;28;20037;-72
2022/03/03 10:42:14;;;;;;;;;;;6.50;82.90;;;;;;5063590;28;20713;-72
2022/03/03 10:44:40;;;;;;;33.67;19.35;;;6.70;81.50;;;;;;5063667;28;19913;-73
2022/03/03 10:47:07;;;;;;;32.88;19.23;;;6.90;79.60;;;;;;5053307;28;20351;-72
2022/03/03 10:49:35;;;;;;;31.98;19.95;;;7.10;78.60;;;;;;5060908;28;20032;-71
2022/03/03 10:52:27;;;;;;;35.47;20.08;;;7.20;76.70;;;;;;5061134;28;20111;-71
2022/03/03 10:54:58;;;;;;;28.70;18.33;;;7.40;74.70;;;;;;5067145;28;20418;-71
2022/03/03 10:57:29;;;;;;;;;;;7.60;73.60;;;;;;5065481;28;20088;-68
2022/03/03 10:59:58;;;;;;;32.38;19.23;;;7.70;73.70;;;;;;5055569;28;19920;-70
2022/03/03 11:02:27;;;;;;;32.28;19.05;;;7.70;72.30;;;;;;5060964;28;20033;-71
2022/03/03 11:04:53;;;;;;;32.55;19.75;;;7.70;71.20;;;;;;5062742;28;20462;-71
2022/03/03 11:07:20;;;;;;;31.55;18.60;;;7.70;71.20;;;;;;5066559;28;20036;-71
2022/03/03 11:09:45;;;;;;;34.85;19.80;;;7.80;70.30;;;;;;5054063;28;20041;-73
2022/03/03 11:12:11;;;;;;;33.67;18.75;;;7.80;69.80;;;;;;5064624;28;20043;-71
2022/03/03 11:14:39;;;;;;;34.55;18.50;;;7.80;68.90;;;;;;5061127;28;20036;-71
2022/03/03 11:17:06;;;;;;;33.55;18.88;;;7.90;68.80;;;;;;5065360;28;20031;-71
2022/03/03 11:19:32;;;;;;;31.48;19.13;;;7.90;69.00;;;;;;5060400;28;20040;-71
2022/03/03 11:21:57;;;;;;;33.30;19.33;;;8.00;68.00;;;;;;5060250;28;20473;-72
2022/03/03 11:24:24;;;;;;;28.42;17.70;;;8.10;67.30;;;;;;5071444;28;20477;-72
2022/03/03 11:26:50;;;;;;;26.63;17.90;;;8.10;67.20;;;;;;5066763;28;20483;-72
2022/03/03 11:29:18;;;;;;;28.58;17.65;;;8.10;67.30;;;;;;5070025;28;20042;-72
2022/03/03 11:32:07;;;;;;;28.15;18.13;;;8.20;67.20;;;;;;5053760;28;20037;-72
2022/03/03 11:34:35;;;;;;;29.17;18.20;;;8.40;65.40;;;;;;5065019;28;20040;-72
2022/03/03 11:37:15;;;;;;;29.92;18.50;;;8.50;65.20;;;;;;5071942;28;20103;-76
2022/03/03 11:39:53;;;;;;;31.05;19.48;;;8.50;64.90;;;;;;5056065;28;20037;-78
2022/03/03 11:42:31;;;;;;;28.00;17.77;;;8.60;65.20;;;;;;5065086;28;20025;-78
2022/03/03 11:45:07;;;;;;;32.58;17.63;;;8.70;62.70;;;;;;5064129;28;20036;-84
2022/03/03 11:47:36;;;;;;;27.48;17.80;;;8.80;61.60;;;;;;5057347;28;20033;-78
2022/03/03 11:50:25;;;;;;;33.92;19.35;;;8.90;62.20;;;;;;5067570;28;20029;-84
2022/03/03 11:53:11;;;;;;;30.50;19.33;;;8.90;60.90;;;;;;5060266;28;20016;-75
2022/03/03 11:55:43;;;;;;;32.25;18.52;;;8.90;60.10;;;;;;5051735;28;20037;-80
2022/03/03 11:58:15;;;;;;;31.00;19.35;;;9.00;60.40;;;;;;5066690;28;20078;-75
2022/03/03 12:00:42;;;;;;;26.77;17.30;;;9.10;59.80;;;;;;5063558;28;20101;-79
2022/03/03 12:03:10;;;;;;;31.48;18.77;;;9.10;60.50;;;;;;5072702;28;20028;-73
2022/03/03 12:05:40;;;;;;;30.67;19.45;;;9.20;60.50;;;;;;5061919;28;20035;-74
2022/03/03 12:08:06;;;;;;;;;;;9.30;60.20;;;;;;5058013;28;20027;-75
2022/03/03 12:10:33;;;;;;;30.98;19.23;;;9.60;59.00;;;;;;5062137;28;19912;-78
2022/03/03 12:13:24;;;;;;;30.95;19.15;;;9.70;59.60;;;;;;5057310;28;20029;-77
2022/03/03 12:16:09;;;;;;;41.72;19.15;;;;;;;;;;5052346;28;20053;-79
2022/03/03 12:18:36;;;;;;;26.67;18.10;;;10.80;92.10;;;;;;5061704;28;20128;-74
2022/03/03 12:21:24;;;;;;;28.45;18.55;;;10.90;57.20;;;;;;5063761;28;20029;-74
2022/03/03 12:23:50;;;;;;;34.83;21.10;;;11.40;53.30;;;;;;5061040;28;20033;-74
2022/03/03 12:26:16;;;;;;;33.25;19.13;;;11.50;53.50;;;;;;5068819;28;20385;-73
2022/03/03 12:28:47;;;;;;;30.73;20.27;;;11.70;53.00;;;;;;5065019;28;20108;-74
2022/03/03 12:31:24;;;;;;;30.15;19.35;;;11.90;53.00;;;;;;5063687;28;20474;-74
2022/03/03 12:33:56;;;;;;;34.75;20.85;;;11.90;52.80;;;;;;5063832;28;20398;-74
2022/03/03 12:36:22;;;;;;;29.55;19.75;;;12.20;52.60;;;;;;5061519;28;20074;-73